Time;durP1;ratioP1;P1;durP2;ratioP2;P2;SDS_P1;SDS_P2;PMS_P1;PMS_P2;Temp;Humidity;BMP_temperature;BMP_pressure;BME280_temperature;BME280_humidity;BME280_pressure;Samples;Min_cycle;Max_cycle;Signal;HPM_P1;HPM_P2
2024/04/12 00:01:12;;;;;;;6.53;5.20;;;;;;;;;;5385551;26;20323;-60
2024/04/12 00:03:38;;;;;;;5.50;5.00;;;;;;;;;;5385451;26;20011;-58
2024/04/12 00:06:14;;;;;;;6.13;4.72;;;;;;;;;;5385395;26;19999;-58
2024/04/12 00:08:40;;;;;;;7.57;5.07;;;;;;;;;;5384916;26;19996;-58
2024/04/12 00:11:07;;;;;;;6.10;5.15;;;;;;;;;;5354450;26;19996;-58
2024/04/12 00:13:36;;;;;;;8.48;5.38;;;;;;;;;;5385323;26;20000;-59
2024/04/12 00:16:03;;;;;;;5.45;4.90;;;;;;;;;;5385123;26;19996;-59
2024/04/12 00:18:29;;;;;;;5.30;4.80;;;;;;;;;;5384236;26;20322;-58
2024/04/12 00:20:58;;;;;;;7.07;5.10;;;;;;;;;;5385249;26;20000;-59
2024/04/12 00:23:39;;;;;;;7.53;5.35;;;;;;;;;;5354241;26;19992;-58
2024/04/12 00:26:04;;;;;;;7.40;4.90;;;;;;;;;;5385187;26;20012;-58
2024/04/12 00:28:30;;;;;;;7.18;5.55;;;;;;;;;;5385007;26;19993;-58
2024/04/12 00:30:59;;;;;;;8.65;5.75;;;;;;;;;;5385106;26;19996;-58
2024/04/12 00:33:31;;;;;;;9.23;5.78;;;;;;;;;;5385064;26;20311;-57
2024/04/12 00:35:56;;;;;;;7.70;5.82;;;;;;;;;;5384930;26;20033;-57
2024/04/12 00:38:23;;;;;;;7.28;5.85;;;;;;;;;;5384943;26;20007;-58
2024/04/12 00:40:52;;;;;;;6.55;5.93;;;;;;;;;;5384922;26;20000;-58
2024/04/12 00:43:18;;;;;;;8.93;5.85;;;;;;;;;;5384868;26;20001;-59
2024/04/12 00:45:54;;;;;;;7.25;5.82;;;;;;;;;;5384834;26;20000;-58
2024/04/12 00:48:21;;;;;;;8.70;6.18;;;;;;;;;;5385017;26;20015;-58
2024/04/12 00:50:50;;;;;;;8.85;6.05;;;;;;;;;;5384808;26;20007;-58
2024/04/12 00:53:22;;;;;;;7.05;6.30;;;;;;;;;;5384819;26;20007;-58
2024/04/12 00:56:00;;;;;;;11.40;7.60;;;;;;;;;;5384464;26;20095;-58
2024/04/12 00:58:34;;;;;;;9.27;6.72;;;;;;;;;;5353611;26;20007;-58
2024/04/12 01:01:20;;;;;;;8.20;6.05;;;;;;;;;;5384463;26;20000;-57
2024/04/12 01:03:46;;;;;;;7.57;6.15;;;;;;;;;;5383274;26;20019;-57
2024/04/12 01:06:30;;;;;;;7.95;6.15;;;;;;;;;;5380007;26;20012;-57
2024/04/12 01:08:57;;;;;;;12.75;6.55;;;;;;;;;;5380468;26;20016;-58
2024/04/12 01:11:24;;;;;;;9.82;6.50;;;;;;;;;;5380700;26;20084;-57
2024/04/12 01:13:50;;;;;;;8.63;6.47;;;;;;;;;;5380391;26;20004;-57
2024/04/12 01:16:15;;;;;;;10.18;6.22;;;;;;;;;;5381482;26;19996;-57
2024/04/12 01:18:44;;;;;;;8.85;6.40;;;;;;;;;;5380082;26;19992;-58
2024/04/12 01:21:13;;;;;;;9.27;6.55;;;;;;;;;;5380148;26;19997;-58
2024/04/12 01:23:42;;;;;;;8.88;6.32;;;;;;;;;;5380386;26;20050;-58
2024/04/12 01:26:09;;;;;;;7.85;5.63;;;;;;;;;;5382956;26;19996;-58
2024/04/12 01:28:38;;;;;;;9.73;6.63;;;;;;;;;;5382478;26;20431;-58
2024/04/12 01:31:06;;;;;;;7.28;6.28;;;;;;;;;;5382659;26;19996;-57
2024/04/12 01:33:33;;;;;;;9.48;6.68;;;;;;;;;;5382228;26;19996;-57
2024/04/12 01:36:10;;;;;;;8.75;6.38;;;;;;;;;;5382734;26;20065;-58
2024/04/12 01:38:37;;;;;;;7.88;6.43;;;;;;;;;;5382807;26;20007;-60
2024/04/12 01:41:10;;;;;;;11.38;7.18;;;;;;;;;;5383765;26;19996;-60
2024/04/12 01:43:36;;;;;;;11.45;7.22;;;;;;;;;;5352808;26;20015;-64
2024/04/12 01:46:07;;;;;;;12.15;7.60;;;;;;;;;;5460759;21;20352;-64
2024/04/12 01:48:36;;;;;;;9.40;6.88;;;;;;;;;;5409298;26;20315;-59
2024/04/12 01:51:02;;;;;;;9.70;7.18;;;;;;;;;;5409447;21;20422;-64
2024/04/12 01:53:37;;;;;;;9.57;6.57;;;;;;;;;;5457235;21;20003;-59
2024/04/12 01:56:09;;;;;;;8.43;6.60;;;;;;;;;;5474814;21;20002;-59
2024/04/12 01:58:42;;;;;;;8.90;6.60;;;;;;;;;;5508614;21;20012;-62
2024/04/12 02:01:10;;;;;;;8.30;6.35;;;;;;;;;;5453007;26;20015;-63
2024/04/12 02:03:37;;;;;;;8.82;6.10;;;;;;;;;;5455282;26;20005;-63
2024/04/12 02:06:04;;;;;;;8.40;5.70;;;;;;;;;;5455134;26;19998;-63
2024/04/12 02:08:32;;;;;;;8.10;5.68;;;;;;;;;;5455032;26;20045;-63
2024/04/12 02:10:58;;;;;;;9.07;6.82;;;;;;;;;;5455040;26;19998;-64
2024/04/12 02:13:28;;;;;;;9.77;7.25;;;;;;;;;;5455096;26;19998;-64
2024/04/12 02:15:53;;;;;;;9.20;7.57;;;;;;;;;;5454977;26;20071;-64
2024/04/12 02:18:22;;;;;;;8.55;7.15;;;;;;;;;;5454941;26;19991;-64
2024/04/12 02:20:49;;;;;;;9.45;7.32;;;;;;;;;;5454847;26;20072;-64
2024/04/12 02:23:15;;;;;;;10.10;7.20;;;;;;;;;;5455093;26;20003;-64
2024/04/12 02:25:40;;;;;;;9.18;6.60;;;;;;;;;;5454798;26;20428;-64
2024/04/12 02:28:09;;;;;;;10.25;7.18;;;;;;;;;;5454799;26;20367;-64
2024/04/12 02:30:41;;;;;;;7.20;6.20;;;;;;;;;;5454446;26;20014;-64
2024/04/12 02:33:08;;;;;;;12.95;7.35;;;;;;;;;;5454456;26;19999;-63
2024/04/12 02:35:34;;;;;;;8.13;7.22;;;;;;;;;;5454387;26;20076;-63
2024/04/12 02:38:04;;;;;;;7.93;6.72;;;;;;;;;;5454264;26;20002;-63
2024/04/12 02:40:29;;;;;;;8.55;6.45;;;;;;;;;;5453643;26;20370;-63
2024/04/12 02:42:58;;;;;;;7.75;6.22;;;;;;;;;;5454199;26;20009;-63
2024/04/12 02:45:27;;;;;;;7.40;6.18;;;;;;;;;;5454077;26;19995;-63
2024/04/12 02:47:53;;;;;;;9.32;6.57;;;;;;;;;;5454076;26;19994;-63
2024/04/12 02:50:18;;;;;;;11.15;6.13;;;;;;;;;;5454140;26;19999;-64
2024/04/12 02:52:43;;;;;;;8.00;6.22;;;;;;;;;;5454056;26;19991;-64
2024/04/12 02:55:15;;;;;;;7.32;6.50;;;;;;;;;;5453994;26;20417;-63
2024/04/12 02:57:41;;;;;;;8.52;6.70;;;;;;;;;;5454243;26;20005;-63
2024/04/12 03:00:21;;;;;;;9.73;6.38;;;;;;;;;;5453775;26;19994;-64
2024/04/12 03:02:53;;;;;;;7.45;6.60;;;;;;;;;;5454192;26;20010;-64
2024/04/12 03:05:19;;;;;;;8.23;6.07;;;;;;;;;;5454157;26;19998;-64
2024/04/12 03:07:46;;;;;;;9.65;6.53;;;;;;;;;;5454059;26;20010;-64
2024/04/12 03:10:18;;;;;;;9.52;6.03;;;;;;;;;;5422161;26;19995;-66
2024/04/12 03:12:46;;;;;;;7.93;5.82;;;;;;;;;;5453749;26;20069;-64
2024/04/12 03:15:14;;;;;;;7.70;6.00;;;;;;;;;;5453899;26;20002;-64
2024/04/12 03:17:42;;;;;;;8.13;6.07;;;;;;;;;;5422079;26;20002;-64
2024/04/12 03:20:07;;;;;;;7.93;6.38;;;;;;;;;;5453849;26;20041;-64
2024/04/12 03:22:33;;;;;;;7.25;5.85;;;;;;;;;;5453858;26;20003;-64
2024/04/12 03:24:58;;;;;;;7.93;6.03;;;;;;;;;;5422007;26;19991;-64
2024/04/12 03:27:23;;;;;;;8.02;6.13;;;;;;;;;;5453427;26;19999;-64
2024/04/12 03:29:49;;;;;;;9.20;5.90;;;;;;;;;;5453352;26;20006;-64
2024/04/12 03:32:15;;;;;;;10.43;5.85;;;;;;;;;;5453381;26;20425;-64
2024/04/12 03:34:40;;;;;;;9.02;6.20;;;;;;;;;;5453148;26;19994;-64
2024/04/12 03:37:23;;;;;;;10.10;5.70;;;;;;;;;;5453230;26;20422;-64
2024/04/12 03:39:59;;;;;;;7.65;5.93;;;;;;;;;;5453387;26;20007;-64
2024/04/12 03:42:28;;;;;;;6.55;5.85;;;;;;;;;;5453141;26;20010;-64
2024/04/12 03:44:56;;;;;;;8.43;6.22;;;;;;;;;;5453228;26;19999;-64
2024/04/12 03:47:25;;;;;;;7.22;5.68;;;;;;;;;;5452883;26;20009;-64
2024/04/12 03:49:52;;;;;;;8.25;5.90;;;;;;;;;;5452931;26;19999;-65
2024/04/12 03:52:20;;;;;;;9.07;6.07;;;;;;;;;;5422648;26;19994;-64
2024/04/12 03:54:46;;;;;;;7.53;5.95;;;;;;;;;;5425330;26;20010;-64
2024/04/12 03:57:12;;;;;;;11.32;6.18;;;;;;;;;;5456673;26;19995;-63
2024/04/12 03:59:43;;;;;;;12.93;7.13;;;;;;;;;;5418624;26;19995;-63
2024/04/12 04:02:09;;;;;;;26.63;11.75;;;;;;;;;;5420706;26;19999;-63
2024/04/12 04:04:37;;;;;;;25.95;11.63;;;;;;;;;;5420698;26;20007;-63
2024/04/12 04:07:05;;;;;;;21.63;9.73;;;;;;;;;;5420643;26;19996;-63
2024/04/12 04:09:32;;;;;;;16.08;8.15;;;;;;;;;;5420501;26;20010;-63
2024/04/12 04:11:57;;;;;;;14.27;7.90;;;;;;;;;;5420240;26;20011;-63
2024/04/12 04:14:27;;;;;;;11.30;7.68;;;;;;;;;;5420436;26;20321;-63
2024/04/12 04:16:55;;;;;;;15.23;8.35;;;;;;;;;;5420152;26;20011;-63
2024/04/12 04:19:30;;;;;;;9.73;7.45;;;;;;;;;;5419978;26;20028;-63
2024/04/12 04:22:39;;;;;;;11.63;7.88;;;;;;;;;;5420102;26;20011;-63
2024/04/12 04:25:09;;;;;;;17.92;9.88;;;;;;;;;;5420034;26;19999;-63
2024/04/12 04:27:34;;;;;;;20.08;11.10;;;;;;;;;;5419749;26;19996;-63
2024/04/12 04:30:00;;;;;;;18.33;10.13;;;;;;;;;;5419837;26;19996;-64
2024/04/12 04:32:26;;;;;;;18.73;10.77;;;;;;;;;;5419924;26;20068;-64
2024/04/12 04:35:04;;;;;;;17.95;11.70;;;;;;;;;;5420028;26;20007;-64
2024/04/12 04:37:31;;;;;;;17.45;10.57;;;;;;;;;;5420428;26;20011;-64
2024/04/12 04:39:58;;;;;;;15.43;9.52;;;;;;;;;;5419717;26;19999;-64
2024/04/12 04:42:24;;;;;;;17.13;9.90;;;;;;;;;;5419713;26;20426;-64
2024/04/12 04:44:49;;;;;;;16.25;9.48;;;;;;;;;;5420016;26;20006;-64
2024/04/12 04:47:15;;;;;;;19.05;10.05;;;;;;;;;;5419615;26;19995;-66
2024/04/12 04:49:42;;;;;;;17.25;9.80;;;;;;;;;;5419833;26;20002;-67
2024/04/12 04:52:08;;;;;;;21.48;10.65;;;;;;;;;;5388125;26;20094;-66
2024/04/12 04:54:39;;;;;;;23.83;10.60;;;;;;;;;;5419508;26;19996;-63
2024/04/12 04:57:06;;;;;;;17.13;10.38;;;;;;;;;;5419612;26;19995;-63
2024/04/12 04:59:32;;;;;;;20.80;10.18;;;;;;;;;;5432188;26;19999;-63
2024/04/12 05:02:00;;;;;;;15.07;9.73;;;;;;;;;;5393342;26;20314;-63
2024/04/12 05:04:31;;;;;;;18.35;9.73;;;;;;;;;;5454373;26;20003;-63
2024/04/12 05:06:58;;;;;;;;;;;;;;;;;;5453074;26;19995;-63
2024/04/12 05:09:27;;;;;;;14.50;9.45;;;;;;;;;;5454392;26;19924;-64
2024/04/12 05:11:53;;;;;;;18.25;10.95;;;;;;;;;;5455119;26;20093;-63
2024/04/12 05:17:03;;;;;;;24.13;11.35;;;;;;;;;;5454080;26;19995;-63
2024/04/12 05:19:32;;;;;;;18.40;11.10;;;;;;;;;;5423209;26;19995;-63
2024/04/12 05:21:59;;;;;;;21.65;11.55;;;;;;;;;;5454885;26;20007;-64
2024/04/12 05:24:25;;;;;;;21.98;11.00;;;;;;;;;;5454760;26;20002;-63
2024/04/12 05:27:01;;;;;;;22.42;11.90;;;;;;;;;;5455349;26;20001;-62
2024/04/12 05:29:28;;;;;;;22.40;11.48;;;;;;;;;;5455303;26;20009;-63
2024/04/12 05:31:56;;;;;;;22.17;11.57;;;;;;;;;;5455296;26;20006;-64
2024/04/12 05:34:22;;;;;;;20.27;11.18;;;;;;;;;;5454590;26;20072;-64
2024/04/12 05:36:48;;;;;;;20.05;11.38;;;;;;;;;;5455192;26;20027;-63
2024/04/12 05:39:13;;;;;;;21.80;11.80;;;;;;;;;;5454811;26;20002;-69
2024/04/12 05:41:40;;;;;;;17.25;9.77;;;;;;;;;;5422831;26;20041;-63
2024/04/12 05:44:08;;;;;;;16.48;9.80;;;;;;;;;;5454438;26;20006;-65
2024/04/12 05:46:38;;;;;;;19.00;10.23;;;;;;;;;;5455093;26;20006;-63
2024/04/12 05:49:09;;;;;;;17.48;9.40;;;;;;;;;;5421972;26;20009;-63
2024/04/12 05:51:35;;;;;;;16.67;9.23;;;;;;;;;;5455160;26;19999;-62
2024/04/12 05:54:10;;;;;;;14.68;9.63;;;;;;;;;;5454851;26;20003;-62
2024/04/12 05:56:41;;;;;;;16.15;9.40;;;;;;;;;;5455060;26;19995;-62
2024/04/12 05:59:13;;;;;;;15.52;9.93;;;;;;;;;;5454655;26;19998;-62
2024/04/12 06:01:43;;;;;;;15.70;9.35;;;;;;;;;;5454943;26;19995;-62
2024/04/12 06:04:10;;;;;;;14.43;8.27;;;;;;;;;;5452626;26;19991;-62
2024/04/12 06:06:40;;;;;;;12.50;8.88;;;;;;;;;;5454268;26;20026;-62
2024/04/12 06:09:06;;;;;;;15.65;9.05;;;;;;;;;;5454725;26;20005;-62
2024/04/12 06:11:32;;;;;;;14.65;9.05;;;;;;;;;;5453994;26;19995;-62
2024/04/12 06:14:01;;;;;;;14.80;9.30;;;;;;;;;;5454253;26;20437;-63
2024/04/12 06:16:27;;;;;;;13.48;9.05;;;;;;;;;;5451765;26;19995;-62
2024/04/12 06:18:52;;;;;;;15.73;9.45;;;;;;;;;;5452461;26;19995;-62
2024/04/12 06:21:18;;;;;;;14.52;9.80;;;;;;;;;;5452343;26;19995;-63
2024/04/12 06:23:44;;;;;;;13.45;9.25;;;;;;;;;;5452431;26;19995;-63
2024/04/12 06:26:09;;;;;;;14.38;9.48;;;;;;;;;;5452335;26;20005;-63
2024/04/12 06:28:37;;;;;;;13.55;10.23;;;;;;;;;;5452184;26;20001;-62
2024/04/12 06:31:02;;;;;;;17.55;10.10;;;;;;;;;;5452835;26;20009;-62
2024/04/12 06:33:28;;;;;;;13.82;10.05;;;;;;;;;;5454220;26;20333;-62
2024/04/12 06:36:03;;;;;;;13.35;9.88;;;;;;;;;;5427133;26;20007;-62
2024/04/12 06:38:33;;;;;;;12.85;9.50;;;;;;;;;;5416380;26;20011;-63
2024/04/12 06:41:03;;;;;;;14.48;9.43;;;;;;;;;;5417835;26;20006;-62
2024/04/12 06:43:28;;;;;;;12.97;9.67;;;;;;;;;;5418369;26;20046;-63
2024/04/12 06:45:57;;;;;;;14.15;9.93;;;;;;;;;;5418238;26;20221;-63
2024/04/12 06:48:26;;;;;;;14.00;10.15;;;;;;;;;;5418198;26;20000;-63
2024/04/12 06:51:02;;;;;;;17.20;10.52;;;;;;;;;;5418169;26;20020;-63
2024/04/12 06:53:28;;;;;;;15.18;9.60;;;;;;;;;;5418124;26;19999;-63
2024/04/12 06:55:58;;;;;;;15.82;9.88;;;;;;;;;;5418103;26;19999;-63
2024/04/12 06:58:25;;;;;;;14.80;9.82;;;;;;;;;;5427180;26;20013;-63
2024/04/12 07:00:58;;;;;;;17.15;10.20;;;;;;;;;;5422009;26;20002;-63
2024/04/12 07:03:27;;;;;;;14.73;9.13;;;;;;;;;;5422221;26;20002;-63
2024/04/12 07:05:54;;;;;;;15.68;9.88;;;;;;;;;;5422012;26;19995;-63
2024/04/12 07:08:26;;;;;;;15.38;10.23;;;;;;;;;;5453986;26;20018;-63
2024/04/12 07:10:52;;;;;;;16.63;9.63;;;;;;;;;;5453853;26;20433;-63
2024/04/12 07:13:27;;;;;;;17.80;9.65;;;;;;;;;;5454028;26;19999;-63
2024/04/12 07:15:55;;;;;;;13.43;8.73;;;;;;;;;;5453792;26;19998;-63
2024/04/12 07:18:26;;;;;;;14.25;9.65;;;;;;;;;;5453850;26;20013;-63
2024/04/12 07:20:57;;;;;;;16.63;11.02;;;;;;;;;;5453153;26;20003;-63
2024/04/12 07:23:22;;;;;;;13.77;10.32;;;;;;;;;;5453775;26;19999;-63
2024/04/12 07:25:47;;;;;;;18.90;12.15;;;;;;;;;;5421826;26;20394;-63
2024/04/12 07:28:18;;;;;;;14.82;8.68;;;;;;;;;;5457458;26;20013;-63
2024/04/12 07:30:46;;;;;;;;;;;;;;;;;;5457833;26;20410;-63
2024/04/12 07:33:12;;;;;;;17.65;10.43;;;;;;;;;;5457189;26;19961;-63
2024/04/12 07:35:48;;;;;;;13.18;9.40;;;;;;;;;;5425169;26;19999;-63
2024/04/12 07:38:14;;;;;;;15.75;9.73;;;;;;;;;;5457047;26;20519;-63
2024/04/12 07:40:41;;;;;;;13.25;9.60;;;;;;;;;;5456589;26;19995;-63
2024/04/12 07:43:08;;;;;;;12.57;7.68;;;;;;;;;;5456983;26;19999;-63
2024/04/12 07:45:40;;;;;;;9.93;7.22;;;;;;;;;;5423819;26;20006;-63
2024/04/12 07:48:22;;;;;;;12.73;9.18;;;;;;;;;;5456705;26;20049;-63
2024/04/12 07:50:54;;;;;;;13.18;8.07;;;;;;;;;;5456787;26;19994;-63
2024/04/12 07:53:23;;;;;;;10.70;8.02;;;;;;;;;;5456874;26;20502;-63
2024/04/12 07:55:58;;;;;;;13.57;8.13;;;;;;;;;;5456697;26;20325;-63
2024/04/12 07:58:27;;;;;;;10.57;7.80;;;;;;;;;;5456730;26;20018;-63
2024/04/12 08:03:40;;;;;;;12.43;7.93;;;;;;;;;;5455548;26;20010;-60
2024/04/12 08:06:18;;;;;;;12.80;7.28;;;;;;;;;;5455066;26;20071;-60
2024/04/12 08:08:44;;;;;;;12.15;7.05;;;;;;;;;;5455287;26;20039;-61
2024/04/12 08:11:33;;;;;;;11.88;7.72;;;;;;;;;;5454672;26;20017;-60
2024/04/12 08:14:08;;;;;;;13.25;7.13;;;;;;;;;;5455694;26;20463;-60
2024/04/12 08:16:36;;;;;;;14.07;7.25;;;;;;;;;;5455584;26;20467;-61
2024/04/12 08:19:12;;;;;;;14.18;6.95;;;;;;;;;;5455846;26;20079;-61
2024/04/12 08:21:41;;;;;;;9.75;7.18;;;;;;;;;;5455205;26;20083;-64
2024/04/12 08:24:15;;;;;;;9.63;6.15;;;;;;;;;;5453807;26;19995;-62
2024/04/12 08:26:45;;;;;;;11.13;6.32;;;;;;;;;;5455874;26;20329;-62
2024/04/12 08:29:20;;;;;;;8.50;5.13;;;;;;;;;;5455620;26;20017;-61
2024/04/12 08:31:47;;;;;;;8.85;5.43;;;;;;;;;;5455438;26;19994;-62
2024/04/12 08:34:14;;;;;;;8.77;5.88;;;;;;;;;;5455619;26;20017;-61
2024/04/12 08:36:40;;;;;;;9.02;4.97;;;;;;;;;;5455693;26;20071;-62
2024/04/12 08:39:14;;;;;;;8.32;5.35;;;;;;;;;;5454698;26;19999;-61
2024/04/12 08:41:41;;;;;;;5.13;3.72;;;;;;;;;;5455524;26;19999;-61
2024/04/12 08:44:09;;;;;;;9.52;3.60;;;;;;;;;;5455220;26;20402;-62
2024/04/12 08:46:37;;;;;;;;;;;;;;;;;;5456138;26;20329;-61
2024/04/12 08:49:03;;;;;;;9.07;4.78;;;;;;;;;;5455596;26;19924;-62
2024/04/12 08:51:32;;;;;;;10.63;5.25;;;;;;;;;;5455667;26;20010;-62
2024/04/12 08:53:59;;;;;;;11.40;6.30;;;;;;;;;;5455570;26;20015;-61
2024/04/12 08:56:28;;;;;;;11.00;6.65;;;;;;;;;;5418336;26;20018;-61
2024/04/12 08:59:05;;;;;;;12.60;5.50;;;;;;;;;;5418633;26;19999;-62
2024/04/12 09:01:31;;;;;;;10.98;6.35;;;;;;;;;;5418858;26;20000;-61
2024/04/12 09:04:03;;;;;;;9.70;5.03;;;;;;;;;;5419060;26;20011;-61
2024/04/12 09:06:29;;;;;;;13.32;6.22;;;;;;;;;;5419691;26;20032;-61
2024/04/12 09:08:54;;;;;;;13.07;7.55;;;;;;;;;;5419422;26;20026;-62
2024/04/12 09:11:25;;;;;;;14.18;6.82;;;;;;;;;;5419877;26;20003;-61
2024/04/12 09:13:50;;;;;;;;;;;;;;;;;;5420902;26;20326;-61
2024/04/12 09:16:19;;;;;;;13.70;6.63;;;;;;;;;;5419942;26;19925;-62
2024/04/12 09:18:51;;;;;;;9.23;5.85;;;;;;;;;;5419812;26;20380;-62
2024/04/12 09:21:24;;;;;;;11.43;6.57;;;;;;;;;;5419401;26;20000;-61
2024/04/12 09:23:50;;;;;;;16.92;7.22;;;;;;;;;;5418798;26;19999;-61
2024/04/12 09:26:25;;;;;;;8.57;4.05;;;;;;;;;;5419727;26;20003;-62
2024/04/12 09:29:01;;;;;;;9.13;4.00;;;;;;;;;;5419116;26;19999;-61
2024/04/12 09:34:22;;;;;;;6.90;3.40;;;;;;;;;;5419715;26;19996;-61
2024/04/12 09:37:54;;;;;;;3.97;2.60;;;;;;;;;;5419539;26;19995;-62
2024/04/12 09:40:52;;;;;;;5.22;3.40;;;;;;;;;;5386967;26;20021;-61
2024/04/12 09:45:27;;;;;;;5.30;2.92;;;;;;;;;;5417432;26;20076;-61
2024/04/12 10:38:01;;;;;;;3.28;2.97;;;;;;;;;;5418039;26;19999;-62
2024/04/12 10:40:30;;;;;;;3.90;3.30;;;;;;;;;;5418700;26;19999;-62
2024/04/12 10:42:59;;;;;;;3.65;2.35;;;;;;;;;;5418782;26;19999;-62
2024/04/12 10:45:29;;;;;;;5.80;3.95;;;;;;;;;;5386706;26;19999;-62
2024/04/12 10:47:55;;;;;;;4.07;3.13;;;;;;;;;;5418607;26;20009;-62
2024/04/12 10:50:23;;;;;;;4.97;3.42;;;;;;;;;;5418187;26;20008;-64
2024/04/12 10:52:51;;;;;;;6.63;3.13;;;;;;;;;;5418382;26;20091;-64
2024/04/12 10:55:19;;;;;;;3.13;2.83;;;;;;;;;;5386990;26;19991;-64
2024/04/12 10:57:47;;;;;;;1.63;1.52;;;;;;;;;;5418157;26;20409;-64
2024/04/12 11:00:16;;;;;;;3.70;2.80;;;;;;;;;;5417153;26;20036;-64
2024/04/12 11:02:54;;;;;;;7.40;3.30;;;;;;;;;;5420901;26;19999;-64
2024/04/12 11:07:51;;;;;;;3.25;2.05;;;;;;;;;;5421262;26;20003;-64
2024/04/12 11:10:54;;;;;;;4.85;2.70;;;;;;;;;;5420759;26;19999;-64
2024/04/12 11:13:11;;;;;;;5.88;2.67;;;;;;;;;;5419100;26;19995;-64
2024/04/12 11:31:57;;;;;;;7.03;2.45;;;;;;;;;;5421026;26;20000;-64
2024/04/12 11:34:25;;;;;;;3.17;2.00;;;;;;;;;;5420875;26;20012;-64
2024/04/12 11:36:55;;;;;;;2.60;2.40;;;;;;;;;;5420920;26;20600;-64
2024/04/12 11:39:26;;;;;;;3.77;2.77;;;;;;;;;;5421127;26;20000;-64
2024/04/12 11:41:52;;;;;;;4.78;2.55;;;;;;;;;;5420771;26;20004;-64
2024/04/12 11:44:19;;;;;;;5.07;2.28;;;;;;;;;;5419883;26;20096;-64
2024/04/12 11:46:48;;;;;;;3.25;1.48;;;;;;;;;;5420567;26;20003;-63
2024/04/12 11:49:25;;;;;;;4.97;2.10;;;;;;;;;;5420144;26;20039;-64
2024/04/12 11:51:55;;;;;;;4.95;1.90;;;;;;;;;;5388825;26;19996;-63
2024/04/12 11:54:31;;;;;;;4.00;2.03;;;;;;;;;;5359770;26;20043;-63
2024/04/12 11:56:59;;;;;;;4.68;1.67;;;;;;;;;;5419931;26;20003;-63
2024/04/12 11:59:27;;;;;;;1.83;1.45;;;;;;;;;;5419440;26;20342;-63
2024/04/12 12:01:57;;;;;;;4.60;1.85;;;;;;;;;;5420230;26;20449;-63
2024/04/12 12:04:24;;;;;;;2.10;1.80;;;;;;;;;;5420068;26;20015;-63
2024/04/12 12:06:49;;;;;;;4.22;1.80;;;;;;;;;;5388388;26;19999;-63
2024/04/12 12:09:15;;;;;;;1.95;1.70;;;;;;;;;;5419878;26;20044;-57
2024/04/12 12:12:00;;;;;;;4.45;1.90;;;;;;;;;;5488561;21;20002;-57
2024/04/12 12:14:26;;;;;;;3.25;1.38;;;;;;;;;;5307833;26;20018;-64
2024/04/12 12:16:51;;;;;;;3.00;1.45;;;;;;;;;;5284065;27;20055;-57
2024/04/12 12:19:18;;;;;;;1.63;1.20;;;;;;;;;;5283927;27;20013;-58
2024/04/12 12:21:49;;;;;;;4.43;1.80;;;;;;;;;;5313996;27;20122;-57
2024/04/12 12:24:14;;;;;;;1.67;1.57;;;;;;;;;;5314422;27;20017;-58
2024/04/12 12:26:40;;;;;;;2.28;1.88;;;;;;;;;;5314689;27;20006;-57
2024/04/12 12:29:09;;;;;;;2.25;1.33;;;;;;;;;;5315009;27;20015;-57
2024/04/12 12:31:34;;;;;;;4.70;2.20;;;;;;;;;;5314709;27;20009;-57
2024/04/12 12:33:59;;;;;;;4.18;1.65;;;;;;;;;;5313222;27;20013;-57
2024/04/12 12:36:28;;;;;;;2.45;1.52;;;;;;;;;;5314977;27;20017;-57
2024/04/12 12:38:54;;;;;;;2.47;1.30;;;;;;;;;;5314850;27;20005;-58
2024/04/12 12:41:20;;;;;;;5.10;2.00;;;;;;;;;;5314621;27;20012;-55
2024/04/12 12:43:47;;;;;;;3.08;2.30;;;;;;;;;;5314936;27;20464;-58
2024/04/12 12:46:15;;;;;;;3.33;1.73;;;;;;;;;;5314668;27;20044;-57
2024/04/12 12:48:41;;;;;;;2.63;1.80;;;;;;;;;;5314697;27;20522;-55
2024/04/12 12:51:08;;;;;;;2.35;1.55;;;;;;;;;;5314617;27;20013;-57
2024/04/12 12:53:34;;;;;;;4.53;1.88;;;;;;;;;;5313631;27;20472;-57
2024/04/12 12:56:00;;;;;;;1.70;1.45;;;;;;;;;;5314477;27;20008;-58
2024/04/12 12:58:26;;;;;;;3.53;1.90;;;;;;;;;;5284121;27;20348;-58
2024/04/12 13:00:52;;;;;;;2.85;2.00;;;;;;;;;;5314169;27;20079;-58
2024/04/12 13:03:17;;;;;;;3.25;2.08;;;;;;;;;;5314118;27;20013;-58
2024/04/12 13:05:45;;;;;;;4.00;1.75;;;;;;;;;;5314263;27;20020;-55
2024/04/12 13:08:15;;;;;;;2.47;1.70;;;;;;;;;;5313778;27;20005;-58
2024/04/12 13:10:46;;;;;;;2.10;1.67;;;;;;;;;;5314004;27;20012;-58
2024/04/12 13:13:17;;;;;;;2.17;1.60;;;;;;;;;;5313906;26;20450;-58
2024/04/12 13:15:43;;;;;;;4.05;1.75;;;;;;;;;;5313776;27;20017;-59
2024/04/12 13:18:10;;;;;;;1.73;1.63;;;;;;;;;;5314118;27;20001;-56
2024/04/12 13:20:36;;;;;;;3.42;1.52;;;;;;;;;;5284358;27;20005;-54
2024/04/12 13:23:02;;;;;;;2.55;1.70;;;;;;;;;;5313592;27;20033;-54
2024/04/12 13:25:29;;;;;;;4.22;1.90;;;;;;;;;;5313999;27;20002;-54
2024/04/12 13:27:54;;;;;;;2.78;1.70;;;;;;;;;;5314632;27;20002;-56
2024/04/12 13:30:21;;;;;;;3.15;1.60;;;;;;;;;;5314398;27;20406;-56
2024/04/12 13:32:53;;;;;;;2.00;1.65;;;;;;;;;;5313879;27;20049;-55
2024/04/12 13:35:21;;;;;;;3.92;1.90;;;;;;;;;;5256175;27;20008;-56
2024/04/12 13:37:46;;;;;;;3.42;1.83;;;;;;;;;;5314365;27;20013;-56
2024/04/12 13:40:17;;;;;;;2.67;1.63;;;;;;;;;;5283711;27;20309;-55
2024/04/12 13:42:47;;;;;;;1.83;1.65;;;;;;;;;;5313998;27;20013;-56
2024/04/12 13:50:56;;;;;;;7.22;2.60;;;;;;;;;;5314127;27;20049;-58
2024/04/12 13:53:31;;;;;;;;;;;;;;;;;;5314550;27;20498;-56
2024/04/12 13:56:19;;;;;;;2.50;1.55;;;;;;;;;;5314190;27;20103;-55
2024/04/12 13:58:53;;;;;;;2.40;2.08;;;;;;;;;;5314243;27;20443;-56
2024/04/12 14:01:25;;;;;;;3.35;1.90;;;;;;;;;;5312281;27;20030;-56
2024/04/12 14:03:52;;;;;;;2.40;1.50;;;;;;;;;;5310808;27;20328;-56
2024/04/12 14:06:18;;;;;;;1.60;1.40;;;;;;;;;;5313158;27;20223;-56
2024/04/12 14:08:45;;;;;;;3.33;1.30;;;;;;;;;;5313832;27;20014;-56
2024/04/12 14:11:10;;;;;;;2.17;1.85;;;;;;;;;;5312333;27;20015;-56
2024/04/12 14:13:36;;;;;;;1.83;1.70;;;;;;;;;;5309756;27;20006;-56
2024/04/12 14:16:01;;;;;;;3.35;1.55;;;;;;;;;;5310210;27;20002;-56
2024/04/12 14:18:26;;;;;;;2.92;1.17;;;;;;;;;;5310020;27;20002;-56
2024/04/12 14:20:52;;;;;;;1.60;1.30;;;;;;;;;;5309009;27;20468;-56
2024/04/12 14:23:17;;;;;;;2.13;1.55;;;;;;;;;;5310187;27;19997;-56
2024/04/12 14:25:44;;;;;;;3.40;1.50;;;;;;;;;;5309349;27;20499;-56
2024/04/12 14:28:11;;;;;;;2.95;1.50;;;;;;;;;;5309369;27;19997;-56
2024/04/12 14:30:36;;;;;;;2.38;1.30;;;;;;;;;;5313652;27;20034;-56
2024/04/12 14:33:01;;;;;;;1.48;1.38;;;;;;;;;;5313658;27;19994;-56
2024/04/12 14:35:27;;;;;;;2.03;1.08;;;;;;;;;;5312592;27;19994;-56
2024/04/12 14:37:54;;;;;;;2.13;1.17;;;;;;;;;;5313453;27;19997;-56
2024/04/12 14:40:20;;;;;;;1.25;1.20;;;;;;;;;;5283298;27;20022;-56
2024/04/12 14:42:46;;;;;;;2.20;1.30;;;;;;;;;;5313477;27;20045;-56
2024/04/12 14:45:11;;;;;;;1.75;1.50;;;;;;;;;;5313678;27;20009;-56
2024/04/12 14:47:40;;;;;;;2.60;1.05;;;;;;;;;;5313140;27;20021;-56
2024/04/12 14:50:07;;;;;;;1.23;1.20;;;;;;;;;;5313287;27;20075;-56
2024/04/12 14:52:33;;;;;;;2.20;1.17;;;;;;;;;;5313423;27;20002;-56
2024/04/12 14:55:00;;;;;;;2.13;1.10;;;;;;;;;;5312998;27;20012;-56
2024/04/12 14:57:25;;;;;;;3.13;1.38;;;;;;;;;;5313192;27;20009;-56
2024/04/12 14:59:50;;;;;;;1.65;1.15;;;;;;;;;;5313366;27;20438;-56
2024/04/12 15:02:16;;;;;;;2.15;1.17;;;;;;;;;;5313335;27;20002;-56
2024/04/12 15:48:30;;;;;;;2.10;1.20;;;;;;;;;;5315079;27;20009;-61
2024/04/12 15:50:56;;;;;;;1.25;1.15;;;;;;;;;;5315819;27;20013;-56
2024/04/12 15:53:30;;;;;;;1.67;1.50;;;;;;;;;;5315802;27;20009;-56
2024/04/12 16:12:11;;;;;;;1.73;1.20;;;;;;;;;;5315040;27;19997;-56
2024/04/12 16:14:36;;;;;;;3.22;1.50;;;;;;;;;;5315527;27;20009;-56
2024/04/12 16:17:02;;;;;;;3.13;1.45;;;;;;;;;;5315327;27;20418;-56
2024/04/12 16:19:27;;;;;;;4.10;1.50;;;;;;;;;;5285349;27;20392;-56
2024/04/12 16:21:53;;;;;;;2.55;1.42;;;;;;;;;;5315313;27;20324;-56
2024/04/12 16:24:19;;;;;;;3.47;1.60;;;;;;;;;;5315435;27;19997;-56
2024/04/12 16:26:44;;;;;;;2.03;1.38;;;;;;;;;;5315515;27;20005;-56
2024/04/12 16:29:09;;;;;;;2.38;1.52;;;;;;;;;;5315267;27;19997;-56
2024/04/12 16:31:36;;;;;;;3.05;1.70;;;;;;;;;;5315316;27;20049;-56
2024/04/12 16:34:02;;;;;;;1.90;1.50;;;;;;;;;;5285217;27;20010;-55
2024/04/12 16:36:27;;;;;;;2.25;1.63;;;;;;;;;;5315320;27;20049;-56
2024/04/12 16:38:53;;;;;;;3.08;1.85;;;;;;;;;;5315495;27;19994;-56
2024/04/12 16:41:20;;;;;;;2.88;1.70;;;;;;;;;;5315478;27;20002;-56
2024/04/12 16:43:46;;;;;;;1.88;1.48;;;;;;;;;;5285462;27;19998;-56
2024/04/12 16:46:15;;;;;;;2.45;1.77;;;;;;;;;;5314942;27;20004;-56
2024/04/12 16:48:42;;;;;;;2.33;1.83;;;;;;;;;;5314979;27;20005;-56
2024/04/12 16:51:08;;;;;;;4.05;1.80;;;;;;;;;;5315063;27;20012;-56
2024/04/12 16:53:35;;;;;;;5.10;2.30;;;;;;;;;;5315185;27;20001;-56
2024/04/12 16:56:02;;;;;;;5.00;1.98;;;;;;;;;;5313864;27;20443;-56
2024/04/12 16:58:27;;;;;;;4.20;2.20;;;;;;;;;;5284251;27;19997;-56
2024/04/12 17:00:53;;;;;;;2.53;2.33;;;;;;;;;;5313819;27;19997;-56
2024/04/12 17:03:21;;;;;;;5.72;2.50;;;;;;;;;;5314277;27;20016;-56
2024/04/12 17:05:46;;;;;;;4.45;2.83;;;;;;;;;;5314889;27;20002;-56
2024/04/12 17:08:12;;;;;;;3.00;2.75;;;;;;;;;;5315023;27;20072;-56
2024/04/12 17:10:37;;;;;;;3.30;3.00;;;;;;;;;;5314483;27;20001;-56
2024/04/12 17:13:04;;;;;;;4.07;3.38;;;;;;;;;;5284143;27;20051;-56